Volborg, Montana
Current Conditions -  °F | °C
As of 8:53 AM on Sunday 25 Jan 2015 (Local Time) from KMLS Reporting Station
Broken Clouds Broken Clouds  
Wind Chill: 24°   Ceiling: 8000
Heat Index: 32°   Visibility: 10mi
Dew Point: 28°   Wind: 10mph
Humidity: 85%   Direction: 150°SSE
Pressure: 29.98"   Gusts: NA
Location:  45.84°N, 105.68°W
Report Text: KMLS 251553Z AUTO 15009KT 10SM BKN080 00/M02 A2998 RMK AO2 SLP172 T00001022
Loading
Personal Weather Stations






























Interactive Weather Map New forecast layout! Learn more

10-Day Weather Forecast

Advertisements
Track Severe Weather on mobile